Terminal Aerodrome Forecast
Issued by NWS Tulsa, OK

Home | Current Version | Previous Version | Text Only | Print | Product List | Glossary Off
Versions: 1 2 3 4 5 6 7 8 9 10 11 12 13

000
FTUS44 KTSA 010500
TAFFSM
TAF
KFSM 010523Z 0106/0206 25003KT P6SM BKN250
     FM010900 08003KT 5SM BR BKN080
      TEMPO 0110/0114 3SM BR BKN025
     FM011400 11010KT P6SM BKN035
     FM011800 15010KT P6SM SCT040 BKN250
     FM012000 15008KT P6SM VCTS SCT040CB BKN250=

USA.gov is the U.S. government's official web portal to all federal, state and local government web resources and services.